sensor_id;sensor_type;location;lat;lon;timestamp;temperature;humidity
20560;DHT22;10438;51.454;6.718;2023-03-11T00:01:54;1.80;99.90
20560;DHT22;10438;51.454;6.718;2023-03-11T00:04:19;1.70;99.90
20560;DHT22;10438;51.454;6.718;2023-03-11T00:06:45;1.70;99.90
20560;DHT22;10438;51.454;6.718;2023-03-11T00:09:10;1.70;99.90
20560;DHT22;10438;51.454;6.718;2023-03-11T00:11:36;1.70;99.90
20560;DHT22;10438;51.454;6.718;2023-03-11T00:14:01;1.70;99.90
20560;DHT22;10438;51.454;6.718;2023-03-11T00:16:27;1.70;99.90
20560;DHT22;10438;51.454;6.718;2023-03-11T00:18:52;1.70;99.90
20560;DHT22;10438;51.454;6.718;2023-03-11T00:21:18;1.70;99.90
20560;DHT22;10438;51.454;6.718;2023-03-11T00:23:45;1.70;99.90
20560;DHT22;10438;51.454;6.718;2023-03-11T00:26:11;1.70;99.90
20560;DHT22;10438;51.454;6.718;2023-03-11T00:28:37;1.70;99.90
20560;DHT22;10438;51.454;6.718;2023-03-11T00:31:03;1.70;99.90
20560;DHT22;10438;51.454;6.718;2023-03-11T00:33:29;1.70;99.90
20560;DHT22;10438;51.454;6.718;2023-03-11T00:35:55;1.70;99.90
20560;DHT22;10438;51.454;6.718;2023-03-11T00:38:20;1.70;99.90
20560;DHT22;10438;51.454;6.718;2023-03-11T00:40:47;1.70;99.90
20560;DHT22;10438;51.454;6.718;2023-03-11T00:43:14;1.70;99.90
20560;DHT22;10438;51.454;6.718;2023-03-11T00:45:40;1.70;99.90
20560;DHT22;10438;51.454;6.718;2023-03-11T00:48:06;1.70;99.90
20560;DHT22;10438;51.454;6.718;2023-03-11T00:50:34;1.70;99.90
20560;DHT22;10438;51.454;6.718;2023-03-11T00:53:01;1.70;99.90
20560;DHT22;10438;51.454;6.718;2023-03-11T00:55:30;1.70;99.90
20560;DHT22;10438;51.454;6.718;2023-03-11T00:57:58;1.70;99.90
20560;DHT22;10438;51.454;6.718;2023-03-11T01:00:26;1.70;99.90
20560;DHT22;10438;51.454;6.718;2023-03-11T01:02:53;1.70;99.90
20560;DHT22;10438;51.454;6.718;2023-03-11T01:05:22;1.70;99.90
20560;DHT22;10438;51.454;6.718;2023-03-11T01:07:48;1.70;99.90
20560;DHT22;10438;51.454;6.718;2023-03-11T01:10:14;1.70;99.90
20560;DHT22;10438;51.454;6.718;2023-03-11T01:12:40;1.80;99.90
20560;DHT22;10438;51.454;6.718;2023-03-11T01:15:08;1.80;99.90
20560;DHT22;10438;51.454;6.718;2023-03-11T01:17:34;1.80;99.90
20560;DHT22;10438;51.454;6.718;2023-03-11T01:19:59;1.80;99.90
20560;DHT22;10438;51.454;6.718;2023-03-11T01:22:25;1.80;99.90
20560;DHT22;10438;51.454;6.718;2023-03-11T01:24:50;1.80;99.90
20560;DHT22;10438;51.454;6.718;2023-03-11T01:27:16;1.90;99.90
20560;DHT22;10438;51.454;6.718;2023-03-11T01:29:42;1.80;99.90
20560;DHT22;10438;51.454;6.718;2023-03-11T01:32:07;1.80;99.90
20560;DHT22;10438;51.454;6.718;2023-03-11T01:34:33;1.80;99.90
20560;DHT22;10438;51.454;6.718;2023-03-11T01:37:01;1.70;99.90
20560;DHT22;10438;51.454;6.718;2023-03-11T01:39:27;1.70;99.90
20560;DHT22;10438;51.454;6.718;2023-03-11T01:41:52;1.70;99.90
20560;DHT22;10438;51.454;6.718;2023-03-11T01:44:20;1.60;99.90
20560;DHT22;10438;51.454;6.718;2023-03-11T01:49:17;1.60;99.90
20560;DHT22;10438;51.454;6.718;2023-03-11T01:51:52;1.60;99.90
20560;DHT22;10438;51.454;6.718;2023-03-11T01:54:29;1.60;99.90
20560;DHT22;10438;51.454;6.718;2023-03-11T01:56:57;1.50;99.90
20560;DHT22;10438;51.454;6.718;2023-03-11T01:59:28;1.50;99.90
20560;DHT22;10438;51.454;6.718;2023-03-11T02:02:01;1.40;99.90
20560;DHT22;10438;51.454;6.718;2023-03-11T02:04:29;1.40;99.90
20560;DHT22;10438;51.454;6.718;2023-03-11T02:06:57;1.30;99.90
20560;DHT22;10438;51.454;6.718;2023-03-11T02:09:23;1.30;99.90
20560;DHT22;10438;51.454;6.718;2023-03-11T02:11:51;1.30;99.90
20560;DHT22;10438;51.454;6.718;2023-03-11T02:14:17;1.30;99.90
20560;DHT22;10438;51.454;6.718;2023-03-11T02:16:42;1.30;99.90
20560;DHT22;10438;51.454;6.718;2023-03-11T02:19:23;1.20;99.90
20560;DHT22;10438;51.454;6.718;2023-03-11T02:21:51;1.20;99.90
20560;DHT22;10438;51.454;6.718;2023-03-11T02:24:45;1.20;99.90
20560;DHT22;10438;51.454;6.718;2023-03-11T02:27:14;1.10;99.90
20560;DHT22;10438;51.454;6.718;2023-03-11T02:29:41;1.10;99.90
20560;DHT22;10438;51.454;6.718;2023-03-11T02:32:08;1.10;99.90
20560;DHT22;10438;51.454;6.718;2023-03-11T02:34:37;1.10;99.90
20560;DHT22;10438;51.454;6.718;2023-03-11T02:37:08;1.10;99.90
20560;DHT22;10438;51.454;6.718;2023-03-11T02:39:38;1.00;99.90
20560;DHT22;10438;51.454;6.718;2023-03-11T02:45:07;1.00;99.90
20560;DHT22;10438;51.454;6.718;2023-03-11T02:47:34;1.00;99.90
20560;DHT22;10438;51.454;6.718;2023-03-11T02:50:01;0.90;99.90
20560;DHT22;10438;51.454;6.718;2023-03-11T02:52:31;0.90;99.90
20560;DHT22;10438;51.454;6.718;2023-03-11T02:54:58;0.90;99.90
20560;DHT22;10438;51.454;6.718;2023-03-11T02:57:23;0.90;99.90
20560;DHT22;10438;51.454;6.718;2023-03-11T02:59:49;0.90;99.90
20560;DHT22;10438;51.454;6.718;2023-03-11T03:02:15;0.90;99.90
20560;DHT22;10438;51.454;6.718;2023-03-11T03:04:40;0.90;99.90
20560;DHT22;10438;51.454;6.718;2023-03-11T03:07:06;0.80;99.90
20560;DHT22;10438;51.454;6.718;2023-03-11T03:09:32;0.80;99.90
20560;DHT22;10438;51.454;6.718;2023-03-11T03:11:57;0.80;99.90
20560;DHT22;10438;51.454;6.718;2023-03-11T03:14:23;0.80;99.90
20560;DHT22;10438;51.454;6.718;2023-03-11T03:16:48;0.80;99.90
20560;DHT22;10438;51.454;6.718;2023-03-11T03:19:14;0.80;99.90
20560;DHT22;10438;51.454;6.718;2023-03-11T03:21:39;0.80;99.90
20560;DHT22;10438;51.454;6.718;2023-03-11T03:24:05;0.80;99.90
20560;DHT22;10438;51.454;6.718;2023-03-11T03:26:31;0.80;99.90
20560;DHT22;10438;51.454;6.718;2023-03-11T03:28:56;0.80;99.90
20560;DHT22;10438;51.454;6.718;2023-03-11T03:31:22;0.80;99.90
20560;DHT22;10438;51.454;6.718;2023-03-11T03:33:48;0.80;99.90
20560;DHT22;10438;51.454;6.718;2023-03-11T03:36:14;0.90;99.90
20560;DHT22;10438;51.454;6.718;2023-03-11T03:38:40;0.80;99.90
20560;DHT22;10438;51.454;6.718;2023-03-11T03:41:05;0.70;99.90
20560;DHT22;10438;51.454;6.718;2023-03-11T03:43:31;0.80;99.90
20560;DHT22;10438;51.454;6.718;2023-03-11T03:46:02;0.80;99.90
20560;DHT22;10438;51.454;6.718;2023-03-11T03:48:28;0.70;99.90
20560;DHT22;10438;51.454;6.718;2023-03-11T03:50:54;0.70;99.90
20560;DHT22;10438;51.454;6.718;2023-03-11T03:53:19;0.70;99.90
20560;DHT22;10438;51.454;6.718;2023-03-11T03:55:45;0.70;99.90
20560;DHT22;10438;51.454;6.718;2023-03-11T03:58:11;0.70;99.90
20560;DHT22;10438;51.454;6.718;2023-03-11T04:00:36;0.70;99.90
20560;DHT22;10438;51.454;6.718;2023-03-11T04:03:02;0.70;99.90
20560;DHT22;10438;51.454;6.718;2023-03-11T04:05:28;0.70;99.90
20560;DHT22;10438;51.454;6.718;2023-03-11T04:07:53;0.60;99.90
20560;DHT22;10438;51.454;6.718;2023-03-11T04:10:19;0.60;99.90
20560;DHT22;10438;51.454;6.718;2023-03-11T04:12:45;0.60;99.90
20560;DHT22;10438;51.454;6.718;2023-03-11T04:15:10;0.60;99.90
20560;DHT22;10438;51.454;6.718;2023-03-11T04:17:37;0.60;99.90
20560;DHT22;10438;51.454;6.718;2023-03-11T04:20:03;0.60;99.90
20560;DHT22;10438;51.454;6.718;2023-03-11T04:22:31;0.60;99.90
20560;DHT22;10438;51.454;6.718;2023-03-11T04:24:57;0.60;99.90
20560;DHT22;10438;51.454;6.718;2023-03-11T04:27:22;0.60;99.90
20560;DHT22;10438;51.454;6.718;2023-03-11T04:29:48;0.50;99.90
20560;DHT22;10438;51.454;6.718;2023-03-11T04:32:13;0.50;99.90
20560;DHT22;10438;51.454;6.718;2023-03-11T04:34:39;0.50;99.90
20560;DHT22;10438;51.454;6.718;2023-03-11T04:37:05;0.50;99.90
20560;DHT22;10438;51.454;6.718;2023-03-11T04:39:30;0.40;99.90
20560;DHT22;10438;51.454;6.718;2023-03-11T04:41:56;0.50;99.90
20560;DHT22;10438;51.454;6.718;2023-03-11T04:44:21;0.40;99.90
20560;DHT22;10438;51.454;6.718;2023-03-11T04:46:47;0.40;99.90
20560;DHT22;10438;51.454;6.718;2023-03-11T04:49:13;0.40;99.90
20560;DHT22;10438;51.454;6.718;2023-03-11T04:51:38;0.40;99.90
20560;DHT22;10438;51.454;6.718;2023-03-11T04:54:04;0.40;99.90
20560;DHT22;10438;51.454;6.718;2023-03-11T04:56:29;0.50;99.90
20560;DHT22;10438;51.454;6.718;2023-03-11T04:58:55;0.50;99.90
20560;DHT22;10438;51.454;6.718;2023-03-11T05:01:20;0.60;99.90
20560;DHT22;10438;51.454;6.718;2023-03-11T05:03:46;0.60;99.90
20560;DHT22;10438;51.454;6.718;2023-03-11T05:06:12;0.60;99.90
20560;DHT22;10438;51.454;6.718;2023-03-11T05:08:37;0.70;99.90
20560;DHT22;10438;51.454;6.718;2023-03-11T05:11:03;0.70;99.90
20560;DHT22;10438;51.454;6.718;2023-03-11T05:13:29;0.70;99.90
20560;DHT22;10438;51.454;6.718;2023-03-11T05:15:54;0.70;99.90
20560;DHT22;10438;51.454;6.718;2023-03-11T05:18:20;0.70;99.90
20560;DHT22;10438;51.454;6.718;2023-03-11T05:20:46;0.70;99.90
20560;DHT22;10438;51.454;6.718;2023-03-11T05:23:11;0.70;99.90
20560;DHT22;10438;51.454;6.718;2023-03-11T05:25:37;0.70;99.90
20560;DHT22;10438;51.454;6.718;2023-03-11T05:28:03;0.70;99.90
20560;DHT22;10438;51.454;6.718;2023-03-11T05:30:28;0.60;99.90
20560;DHT22;10438;51.454;6.718;2023-03-11T05:32:54;0.60;99.90
20560;DHT22;10438;51.454;6.718;2023-03-11T05:35:20;0.60;99.90
20560;DHT22;10438;51.454;6.718;2023-03-11T05:37:46;0.60;99.90
20560;DHT22;10438;51.454;6.718;2023-03-11T05:40:14;0.50;99.90
20560;DHT22;10438;51.454;6.718;2023-03-11T05:42:40;0.60;99.90
20560;DHT22;10438;51.454;6.718;2023-03-11T05:45:07;0.60;99.90
20560;DHT22;10438;51.454;6.718;2023-03-11T05:47:33;0.50;99.90
20560;DHT22;10438;51.454;6.718;2023-03-11T05:49:58;0.60;99.90
20560;DHT22;10438;51.454;6.718;2023-03-11T05:52:24;0.60;99.90
20560;DHT22;10438;51.454;6.718;2023-03-11T05:54:50;0.60;99.90
20560;DHT22;10438;51.454;6.718;2023-03-11T05:57:17;0.60;99.90
20560;DHT22;10438;51.454;6.718;2023-03-11T05:59:43;0.60;99.90
20560;DHT22;10438;51.454;6.718;2023-03-11T06:02:09;0.70;99.90
20560;DHT22;10438;51.454;6.718;2023-03-11T06:04:34;0.60;99.90
20560;DHT22;10438;51.454;6.718;2023-03-11T06:07:00;0.70;99.90
20560;DHT22;10438;51.454;6.718;2023-03-11T06:09:25;0.70;99.90
20560;DHT22;10438;51.454;6.718;2023-03-11T06:11:51;0.60;99.90
20560;DHT22;10438;51.454;6.718;2023-03-11T06:14:16;0.60;99.90
20560;DHT22;10438;51.454;6.718;2023-03-11T06:16:42;0.60;99.90
20560;DHT22;10438;51.454;6.718;2023-03-11T06:19:08;0.60;99.90
20560;DHT22;10438;51.454;6.718;2023-03-11T06:21:34;0.60;99.90
20560;DHT22;10438;51.454;6.718;2023-03-11T06:23:59;0.50;99.90
20560;DHT22;10438;51.454;6.718;2023-03-11T06:26:25;0.50;99.90
20560;DHT22;10438;51.454;6.718;2023-03-11T06:28:51;0.50;99.90
20560;DHT22;10438;51.454;6.718;2023-03-11T06:31:22;0.40;99.90
20560;DHT22;10438;51.454;6.718;2023-03-11T06:33:49;0.40;99.90
20560;DHT22;10438;51.454;6.718;2023-03-11T06:36:16;0.40;99.90
20560;DHT22;10438;51.454;6.718;2023-03-11T06:38:43;0.40;99.90
20560;DHT22;10438;51.454;6.718;2023-03-11T06:41:09;0.40;99.90
20560;DHT22;10438;51.454;6.718;2023-03-11T06:43:35;0.30;99.90
20560;DHT22;10438;51.454;6.718;2023-03-11T06:46:06;0.30;99.90
20560;DHT22;10438;51.454;6.718;2023-03-11T06:48:32;0.30;99.90
20560;DHT22;10438;51.454;6.718;2023-03-11T06:50:59;0.30;99.90
20560;DHT22;10438;51.454;6.718;2023-03-11T06:53:26;0.30;99.90
20560;DHT22;10438;51.454;6.718;2023-03-11T06:56:03;0.30;99.90
20560;DHT22;10438;51.454;6.718;2023-03-11T06:58:30;0.30;99.90
20560;DHT22;10438;51.454;6.718;2023-03-11T07:01:00;0.30;99.90
20560;DHT22;10438;51.454;6.718;2023-03-11T07:03:26;0.30;99.90
20560;DHT22;10438;51.454;6.718;2023-03-11T07:05:52;0.40;99.90
20560;DHT22;10438;51.454;6.718;2023-03-11T07:08:17;0.40;99.90
20560;DHT22;10438;51.454;6.718;2023-03-11T07:10:43;0.40;99.90
20560;DHT22;10438;51.454;6.718;2023-03-11T07:13:09;0.50;99.90
20560;DHT22;10438;51.454;6.718;2023-03-11T07:15:34;0.50;99.90
20560;DHT22;10438;51.454;6.718;2023-03-11T07:18:00;0.50;99.90
20560;DHT22;10438;51.454;6.718;2023-03-11T07:20:26;0.60;99.90
20560;DHT22;10438;51.454;6.718;2023-03-11T07:22:52;0.60;99.90
20560;DHT22;10438;51.454;6.718;2023-03-11T07:25:17;0.60;99.90
20560;DHT22;10438;51.454;6.718;2023-03-11T07:27:43;0.70;99.90
20560;DHT22;10438;51.454;6.718;2023-03-11T07:30:09;0.70;99.90
20560;DHT22;10438;51.454;6.718;2023-03-11T07:32:34;0.70;99.90
20560;DHT22;10438;51.454;6.718;2023-03-11T07:35:00;0.80;99.90
20560;DHT22;10438;51.454;6.718;2023-03-11T07:37:25;0.90;99.90
20560;DHT22;10438;51.454;6.718;2023-03-11T07:39:51;0.90;99.90
20560;DHT22;10438;51.454;6.718;2023-03-11T07:42:16;1.00;99.90
20560;DHT22;10438;51.454;6.718;2023-03-11T07:44:42;1.00;99.90
20560;DHT22;10438;51.454;6.718;2023-03-11T07:47:07;1.10;99.90
20560;DHT22;10438;51.454;6.718;2023-03-11T07:49:33;1.10;99.90
20560;DHT22;10438;51.454;6.718;2023-03-11T07:51:59;1.20;99.90
20560;DHT22;10438;51.454;6.718;2023-03-11T07:54:24;1.30;99.90
20560;DHT22;10438;51.454;6.718;2023-03-11T07:56:50;1.40;99.90
20560;DHT22;10438;51.454;6.718;2023-03-11T07:59:16;1.50;99.90
20560;DHT22;10438;51.454;6.718;2023-03-11T08:01:41;1.80;99.90
20560;DHT22;10438;51.454;6.718;2023-03-11T08:04:12;2.20;99.90
20560;DHT22;10438;51.454;6.718;2023-03-11T08:06:38;2.70;99.90
20560;DHT22;10438;51.454;6.718;2023-03-11T08:09:07;3.00;99.90
20560;DHT22;10438;51.454;6.718;2023-03-11T08:11:34;3.00;99.90
20560;DHT22;10438;51.454;6.718;2023-03-11T08:14:00;2.90;99.90
20560;DHT22;10438;51.454;6.718;2023-03-11T08:16:26;2.70;99.90
20560;DHT22;10438;51.454;6.718;2023-03-11T08:18:52;2.60;99.90
20560;DHT22;10438;51.454;6.718;2023-03-11T08:21:20;2.50;99.90
20560;DHT22;10438;51.454;6.718;2023-03-11T08:23:46;2.40;99.90
20560;DHT22;10438;51.454;6.718;2023-03-11T08:26:14;2.30;99.90
20560;DHT22;10438;51.454;6.718;2023-03-11T08:28:41;2.20;99.90
20560;DHT22;10438;51.454;6.718;2023-03-11T08:33:43;2.20;99.90
20560;DHT22;10438;51.454;6.718;2023-03-11T08:36:09;2.20;99.90
20560;DHT22;10438;51.454;6.718;2023-03-11T08:38:34;2.20;99.90
20560;DHT22;10438;51.454;6.718;2023-03-11T08:41:00;2.20;99.90
20560;DHT22;10438;51.454;6.718;2023-03-11T08:43:26;2.30;99.90
20560;DHT22;10438;51.454;6.718;2023-03-11T08:45:51;2.30;99.90
20560;DHT22;10438;51.454;6.718;2023-03-11T08:48:17;2.40;99.90
20560;DHT22;10438;51.454;6.718;2023-03-11T08:50:43;2.50;99.90
20560;DHT22;10438;51.454;6.718;2023-03-11T08:53:08;2.50;99.90
20560;DHT22;10438;51.454;6.718;2023-03-11T08:55:34;2.50;99.90
20560;DHT22;10438;51.454;6.718;2023-03-11T08:58:00;2.50;99.90
20560;DHT22;10438;51.454;6.718;2023-03-11T09:00:26;2.60;99.90
20560;DHT22;10438;51.454;6.718;2023-03-11T09:02:52;2.70;99.90
20560;DHT22;10438;51.454;6.718;2023-03-11T09:05:18;2.80;99.90
20560;DHT22;10438;51.454;6.718;2023-03-11T09:07:43;3.00;99.90
20560;DHT22;10438;51.454;6.718;2023-03-11T09:10:12;3.20;99.90
20560;DHT22;10438;51.454;6.718;2023-03-11T09:12:38;3.40;99.90
20560;DHT22;10438;51.454;6.718;2023-03-11T09:15:04;3.60;99.90
20560;DHT22;10438;51.454;6.718;2023-03-11T09:17:30;4.00;99.90
20560;DHT22;10438;51.454;6.718;2023-03-11T09:19:55;4.60;99.90
20560;DHT22;10438;51.454;6.718;2023-03-11T09:22:21;4.80;99.90
20560;DHT22;10438;51.454;6.718;2023-03-11T09:24:47;4.70;99.90
20560;DHT22;10438;51.454;6.718;2023-03-11T09:27:12;4.80;99.90
20560;DHT22;10438;51.454;6.718;2023-03-11T09:29:39;5.20;99.90
20560;DHT22;10438;51.454;6.718;2023-03-11T09:32:05;5.70;99.90
20560;DHT22;10438;51.454;6.718;2023-03-11T09:34:31;6.00;99.90
20560;DHT22;10438;51.454;6.718;2023-03-11T09:36:56;6.20;99.90
20560;DHT22;10438;51.454;6.718;2023-03-11T09:39:22;6.40;64.60
20560;DHT22;10438;51.454;6.718;2023-03-11T09:41:55;6.20;74.50
20560;DHT22;10438;51.454;6.718;2023-03-11T09:44:30;6.30;92.20
20560;DHT22;10438;51.454;6.718;2023-03-11T09:55:56;8.70;37.00
20560;DHT22;10438;51.454;6.718;2023-03-11T09:58:39;8.50;15.50
20560;DHT22;10438;51.454;6.718;2023-03-11T10:01:24;8.50;17.70
20560;DHT22;10438;51.454;6.718;2023-03-11T10:03:54;8.60;16.90
20560;DHT22;10438;51.454;6.718;2023-03-11T10:06:26;8.80;18.20
20560;DHT22;10438;51.454;6.718;2023-03-11T10:23:06;9.00;10.40
20560;DHT22;10438;51.454;6.718;2023-03-11T10:25:55;9.10;6.60
20560;DHT22;10438;51.454;6.718;2023-03-11T10:28:47;9.10;9.20
20560;DHT22;10438;51.454;6.718;2023-03-11T10:31:33;9.40;16.30
20560;DHT22;10438;51.454;6.718;2023-03-11T10:34:03;9.40;1.00
20560;DHT22;10438;51.454;6.718;2023-03-11T10:36:46;9.20;8.70
20560;DHT22;10438;51.454;6.718;2023-03-11T10:39:13;9.40;8.10
20560;DHT22;10438;51.454;6.718;2023-03-11T10:41:52;9.40;6.60
20560;DHT22;10438;51.454;6.718;2023-03-11T10:44:38;8.80;12.40
20560;DHT22;10438;51.454;6.718;2023-03-11T10:47:04;8.80;13.90
20560;DHT22;10438;51.454;6.718;2023-03-11T10:49:31;8.70;3.80
20560;DHT22;10438;51.454;6.718;2023-03-11T10:51:56;8.70;1.00
20560;DHT22;10438;51.454;6.718;2023-03-11T10:56:58;8.70;15.80
20560;DHT22;10438;51.454;6.718;2023-03-11T10:59:30;8.70;16.10
20560;DHT22;10438;51.454;6.718;2023-03-11T11:01:58;8.90;11.60
20560;DHT22;10438;51.454;6.718;2023-03-11T11:04:27;8.70;5.80
20560;DHT22;10438;51.454;6.718;2023-03-11T11:06:53;8.60;15.40
20560;DHT22;10438;51.454;6.718;2023-03-11T11:09:21;8.70;13.80
20560;DHT22;10438;51.454;6.718;2023-03-11T11:12:11;9.20;14.20
20560;DHT22;10438;51.454;6.718;2023-03-11T11:14:42;9.10;15.80
20560;DHT22;10438;51.454;6.718;2023-03-11T11:17:34;9.30;1.00
20560;DHT22;10438;51.454;6.718;2023-03-11T11:20:02;8.80;1.50
20560;DHT22;10438;51.454;6.718;2023-03-11T11:22:38;8.90;14.00
20560;DHT22;10438;51.454;6.718;2023-03-11T11:25:59;8.80;6.20
20560;DHT22;10438;51.454;6.718;2023-03-11T11:28:19;8.40;4.70
20560;DHT22;10438;51.454;6.718;2023-03-11T11:30:59;8.40;12.80
20560;DHT22;10438;51.454;6.718;2023-03-11T11:36:04;8.70;15.60
20560;DHT22;10438;51.454;6.718;2023-03-11T11:38:31;9.20;12.70
20560;DHT22;10438;51.454;6.718;2023-03-11T11:41:00;9.30;6.50
20560;DHT22;10438;51.454;6.718;2023-03-11T11:43:48;9.20;5.10
20560;DHT22;10438;51.454;6.718;2023-03-11T11:46:24;9.00;1.00
20560;DHT22;10438;51.454;6.718;2023-03-11T11:51:41;8.60;1.00
20560;DHT22;10438;51.454;6.718;2023-03-11T11:54:57;7.90;1.00
20560;DHT22;10438;51.454;6.718;2023-03-11T11:57:18;7.40;1.00
20560;DHT22;10438;51.454;6.718;2023-03-11T11:59:46;7.30;4.30
20560;DHT22;10438;51.454;6.718;2023-03-11T12:02:48;7.30;16.10
20560;DHT22;10438;51.454;6.718;2023-03-11T12:05:31;7.60;18.30
20560;DHT22;10438;51.454;6.718;2023-03-11T12:11:00;8.00;11.30
20560;DHT22;10438;51.454;6.718;2023-03-11T12:16:40;7.80;1.00
20560;DHT22;10438;51.454;6.718;2023-03-11T12:22:11;7.70;9.40
20560;DHT22;10438;51.454;6.718;2023-03-11T12:30:40;7.50;4.00
20560;DHT22;10438;51.454;6.718;2023-03-11T12:33:12;7.60;8.20
20560;DHT22;10438;51.454;6.718;2023-03-11T12:35:47;7.90;1.00
20560;DHT22;10438;51.454;6.718;2023-03-11T12:38:19;8.20;1.00
20560;DHT22;10438;51.454;6.718;2023-03-11T12:40:59;8.40;1.00
20560;DHT22;10438;51.454;6.718;2023-03-11T12:45:59;8.70;1.00
20560;DHT22;10438;51.454;6.718;2023-03-11T12:50:55;9.30;1.00
20560;DHT22;10438;51.454;6.718;2023-03-11T12:53:47;9.40;1.00
20560;DHT22;10438;51.454;6.718;2023-03-11T13:02:02;10.00;1.00
20560;DHT22;10438;51.454;6.718;2023-03-11T13:10:43;9.90;1.00
20560;DHT22;10438;51.454;6.718;2023-03-11T13:15:56;9.30;1.00
20560;DHT22;10438;51.454;6.718;2023-03-11T13:18:24;9.40;1.00
20560;DHT22;10438;51.454;6.718;2023-03-11T13:20:58;9.50;1.00
20560;DHT22;10438;51.454;6.718;2023-03-11T13:23:36;9.20;1.00
20560;DHT22;10438;51.454;6.718;2023-03-11T13:33:59;9.50;1.00
20560;DHT22;10438;51.454;6.718;2023-03-11T13:36:45;9.30;1.00
20560;DHT22;10438;51.454;6.718;2023-03-11T13:41:49;9.20;1.00
20560;DHT22;10438;51.454;6.718;2023-03-11T13:44:31;9.80;1.00
20560;DHT22;10438;51.454;6.718;2023-03-11T13:47:12;10.00;1.00
20560;DHT22;10438;51.454;6.718;2023-03-11T13:50:05;10.10;1.00
20560;DHT22;10438;51.454;6.718;2023-03-11T13:52:37;10.00;1.00
20560;DHT22;10438;51.454;6.718;2023-03-11T13:55:27;9.70;1.00
20560;DHT22;10438;51.454;6.718;2023-03-11T13:57:56;10.10;1.00
20560;DHT22;10438;51.454;6.718;2023-03-11T14:00:24;10.40;1.00
20560;DHT22;10438;51.454;6.718;2023-03-11T14:02:56;10.50;1.00
20560;DHT22;10438;51.454;6.718;2023-03-11T14:05:31;10.80;1.00
20560;DHT22;10438;51.454;6.718;2023-03-11T14:10:35;11.00;1.00
20560;DHT22;10438;51.454;6.718;2023-03-11T14:13:20;11.10;1.00
20560;DHT22;10438;51.454;6.718;2023-03-11T14:15:59;11.10;1.00
20560;DHT22;10438;51.454;6.718;2023-03-11T14:18:35;11.00;1.00
20560;DHT22;10438;51.454;6.718;2023-03-11T14:21:03;10.70;1.00
20560;DHT22;10438;51.454;6.718;2023-03-11T14:23:41;10.80;1.00
20560;DHT22;10438;51.454;6.718;2023-03-11T14:26:30;10.60;1.00
20560;DHT22;10438;51.454;6.718;2023-03-11T14:28:59;10.10;1.00
20560;DHT22;10438;51.454;6.718;2023-03-11T14:31:35;9.80;1.00
20560;DHT22;10438;51.454;6.718;2023-03-11T14:34:24;9.60;1.00
20560;DHT22;10438;51.454;6.718;2023-03-11T14:36:51;9.40;1.00
20560;DHT22;10438;51.454;6.718;2023-03-11T14:39:32;9.30;1.00
20560;DHT22;10438;51.454;6.718;2023-03-11T14:44:35;8.60;1.00
20560;DHT22;10438;51.454;6.718;2023-03-11T14:47:23;8.60;1.00
20560;DHT22;10438;51.454;6.718;2023-03-11T14:49:52;8.80;1.00
20560;DHT22;10438;51.454;6.718;2023-03-11T14:52:37;9.10;1.00
20560;DHT22;10438;51.454;6.718;2023-03-11T14:55:18;9.10;1.00
20560;DHT22;10438;51.454;6.718;2023-03-11T14:57:51;9.20;1.00
20560;DHT22;10438;51.454;6.718;2023-03-11T15:00:25;9.20;1.00
20560;DHT22;10438;51.454;6.718;2023-03-11T15:05:43;9.20;1.00
20560;DHT22;10438;51.454;6.718;2023-03-11T15:08:10;9.50;1.00
20560;DHT22;10438;51.454;6.718;2023-03-11T15:10:36;9.40;1.00
20560;DHT22;10438;51.454;6.718;2023-03-11T15:13:16;9.40;1.00
20560;DHT22;10438;51.454;6.718;2023-03-11T15:15:42;9.70;1.00
20560;DHT22;10438;51.454;6.718;2023-03-11T15:18:20;9.60;1.00
20560;DHT22;10438;51.454;6.718;2023-03-11T15:20:46;9.70;1.00
20560;DHT22;10438;51.454;6.718;2023-03-11T15:23:24;9.70;1.00
20560;DHT22;10438;51.454;6.718;2023-03-11T15:25:50;9.90;1.00
20560;DHT22;10438;51.454;6.718;2023-03-11T15:28:29;9.70;1.00
20560;DHT22;10438;51.454;6.718;2023-03-11T15:33:46;8.90;1.00
20560;DHT22;10438;51.454;6.718;2023-03-11T15:36:33;8.50;1.00
20560;DHT22;10438;51.454;6.718;2023-03-11T15:42:08;7.70;1.00
20560;DHT22;10438;51.454;6.718;2023-03-11T15:44:41;7.40;1.00
20560;DHT22;10438;51.454;6.718;2023-03-11T15:47:18;7.50;1.00
20560;DHT22;10438;51.454;6.718;2023-03-11T15:49:44;7.50;1.00
20560;DHT22;10438;51.454;6.718;2023-03-11T15:52:11;7.60;1.00
20560;DHT22;10438;51.454;6.718;2023-03-11T15:54:37;7.60;1.00
20560;DHT22;10438;51.454;6.718;2023-03-11T15:57:08;7.50;1.00
20560;DHT22;10438;51.454;6.718;2023-03-11T15:59:36;7.50;1.00
20560;DHT22;10438;51.454;6.718;2023-03-11T16:02:03;7.40;1.00
20560;DHT22;10438;51.454;6.718;2023-03-11T16:04:28;7.20;1.00
20560;DHT22;10438;51.454;6.718;2023-03-11T16:06:54;7.20;1.00
20560;DHT22;10438;51.454;6.718;2023-03-11T16:09:20;7.30;1.00
20560;DHT22;10438;51.454;6.718;2023-03-11T16:11:46;7.30;1.00
20560;DHT22;10438;51.454;6.718;2023-03-11T16:14:17;7.30;1.00
20560;DHT22;10438;51.454;6.718;2023-03-11T16:16:43;7.10;1.00
20560;DHT22;10438;51.454;6.718;2023-03-11T16:19:09;6.90;1.00
20560;DHT22;10438;51.454;6.718;2023-03-11T16:21:42;6.90;1.00
20560;DHT22;10438;51.454;6.718;2023-03-11T16:24:21;7.00;1.00
20560;DHT22;10438;51.454;6.718;2023-03-11T16:26:47;6.90;1.00
20560;DHT22;10438;51.454;6.718;2023-03-11T16:29:13;6.80;1.00
20560;DHT22;10438;51.454;6.718;2023-03-11T16:31:40;6.80;1.00
20560;DHT22;10438;51.454;6.718;2023-03-11T16:34:05;6.70;1.00
20560;DHT22;10438;51.454;6.718;2023-03-11T16:36:31;6.70;1.00
20560;DHT22;10438;51.454;6.718;2023-03-11T16:38:56;6.60;1.00
20560;DHT22;10438;51.454;6.718;2023-03-11T16:41:22;6.60;1.00
20560;DHT22;10438;51.454;6.718;2023-03-11T16:43:47;6.50;1.00
20560;DHT22;10438;51.454;6.718;2023-03-11T16:46:13;6.50;1.00
20560;DHT22;10438;51.454;6.718;2023-03-11T16:48:38;6.40;1.00
20560;DHT22;10438;51.454;6.718;2023-03-11T16:51:04;6.40;1.70
20560;DHT22;10438;51.454;6.718;2023-03-11T16:53:29;6.40;9.80
20560;DHT22;10438;51.454;6.718;2023-03-11T16:55:56;6.40;16.80
20560;DHT22;10438;51.454;6.718;2023-03-11T16:58:22;6.40;5.60
20560;DHT22;10438;51.454;6.718;2023-03-11T17:00:47;6.40;3.10
20560;DHT22;10438;51.454;6.718;2023-03-11T17:03:15;6.30;9.20
20560;DHT22;10438;51.454;6.718;2023-03-11T17:05:41;6.30;2.70
20560;DHT22;10438;51.454;6.718;2023-03-11T17:08:07;6.20;11.50
20560;DHT22;10438;51.454;6.718;2023-03-11T17:10:38;6.20;1.00
20560;DHT22;10438;51.454;6.718;2023-03-11T17:13:04;6.10;1.00
20560;DHT22;10438;51.454;6.718;2023-03-11T17:15:30;6.00;1.00
20560;DHT22;10438;51.454;6.718;2023-03-11T17:17:56;5.90;1.00
20560;DHT22;10438;51.454;6.718;2023-03-11T17:20:22;5.80;1.30
20560;DHT22;10438;51.454;6.718;2023-03-11T17:22:47;5.70;6.10
20560;DHT22;10438;51.454;6.718;2023-03-11T17:25:13;5.70;3.90
20560;DHT22;10438;51.454;6.718;2023-03-11T17:27:39;5.60;5.60
20560;DHT22;10438;51.454;6.718;2023-03-11T17:30:05;5.50;9.10
20560;DHT22;10438;51.454;6.718;2023-03-11T17:32:32;5.40;11.40
20560;DHT22;10438;51.454;6.718;2023-03-11T17:34:57;5.40;19.20
20560;DHT22;10438;51.454;6.718;2023-03-11T17:37:23;5.30;25.80
20560;DHT22;10438;51.454;6.718;2023-03-11T17:39:49;5.20;31.50